sensor_id;sensor_type;location;lat;lon;timestamp;temperature;humidity
62464;SHT31;48512;48.552;9.380;2022-07-18T00:02:24;16.77;63.45
62464;SHT31;48512;48.552;9.380;2022-07-18T00:04:50;16.57;64.28
62464;SHT31;48512;48.552;9.380;2022-07-18T00:07:15;16.43;65.02
62464;SHT31;48512;48.552;9.380;2022-07-18T00:09:42;16.47;64.71
62464;SHT31;48512;48.552;9.380;2022-07-18T00:12:09;16.53;64.52
62464;SHT31;48512;48.552;9.380;2022-07-18T00:14:35;16.61;63.97
62464;SHT31;48512;48.552;9.380;2022-07-18T00:17:02;16.50;64.16
62464;SHT31;48512;48.552;9.380;2022-07-18T00:19:27;16.50;64.37
62464;SHT31;48512;48.552;9.380;2022-07-18T00:21:53;16.34;65.04
62464;SHT31;48512;48.552;9.380;2022-07-18T00:24:19;16.33;64.48
62464;SHT31;48512;48.552;9.380;2022-07-18T00:26:45;16.45;64.14
62464;SHT31;48512;48.552;9.380;2022-07-18T00:29:10;16.23;64.89
62464;SHT31;48512;48.552;9.380;2022-07-18T00:31:37;16.26;64.90
62464;SHT31;48512;48.552;9.380;2022-07-18T00:34:03;16.39;64.54
62464;SHT31;48512;48.552;9.380;2022-07-18T00:36:29;16.34;64.45
62464;SHT31;48512;48.552;9.380;2022-07-18T00:38:55;16.38;64.36
62464;SHT31;48512;48.552;9.380;2022-07-18T00:41:20;16.22;64.55
62464;SHT31;48512;48.552;9.380;2022-07-18T00:43:46;16.12;64.93
62464;SHT31;48512;48.552;9.380;2022-07-18T00:46:12;16.16;64.84
62464;SHT31;48512;48.552;9.380;2022-07-18T00:48:39;16.08;65.26
62464;SHT31;48512;48.552;9.380;2022-07-18T00:51:05;15.92;65.65
62464;SHT31;48512;48.552;9.380;2022-07-18T00:53:32;15.78;66.14
62464;SHT31;48512;48.552;9.380;2022-07-18T00:55:58;15.75;66.39
62464;SHT31;48512;48.552;9.380;2022-07-18T00:58:24;15.68;66.80
62464;SHT31;48512;48.552;9.380;2022-07-18T01:00:49;15.73;66.56
62464;SHT31;48512;48.552;9.380;2022-07-18T01:03:33;15.94;65.91
62464;SHT31;48512;48.552;9.380;2022-07-18T01:05:59;15.81;66.31
62464;SHT31;48512;48.552;9.380;2022-07-18T01:08:24;15.82;66.14
62464;SHT31;48512;48.552;9.380;2022-07-18T01:10:50;15.78;66.11
62464;SHT31;48512;48.552;9.380;2022-07-18T01:13:17;15.84;66.18
62464;SHT31;48512;48.552;9.380;2022-07-18T01:15:45;15.88;65.71
62464;SHT31;48512;48.552;9.380;2022-07-18T01:18:10;15.95;65.61
62464;SHT31;48512;48.552;9.380;2022-07-18T01:20:36;15.74;66.26
62464;SHT31;48512;48.552;9.380;2022-07-18T01:23:01;15.74;66.14
62464;SHT31;48512;48.552;9.380;2022-07-18T01:25:27;15.67;66.46
62464;SHT31;48512;48.552;9.380;2022-07-18T01:27:53;15.63;66.36
62464;SHT31;48512;48.552;9.380;2022-07-18T01:30:19;15.57;66.40
62464;SHT31;48512;48.552;9.380;2022-07-18T01:32:44;15.54;66.49
62464;SHT31;48512;48.552;9.380;2022-07-18T01:35:10;15.58;66.03
62464;SHT31;48512;48.552;9.380;2022-07-18T01:37:36;15.49;65.54
62464;SHT31;48512;48.552;9.380;2022-07-18T01:40:07;15.39;66.02
62464;SHT31;48512;48.552;9.380;2022-07-18T01:42:33;15.36;66.34
62464;SHT31;48512;48.552;9.380;2022-07-18T01:44:58;15.43;66.09
62464;SHT31;48512;48.552;9.380;2022-07-18T01:47:24;15.33;66.53
62464;SHT31;48512;48.552;9.380;2022-07-18T01:49:49;15.18;66.96
62464;SHT31;48512;48.552;9.380;2022-07-18T01:52:15;15.08;67.32
62464;SHT31;48512;48.552;9.380;2022-07-18T01:54:40;15.02;67.62
62464;SHT31;48512;48.552;9.380;2022-07-18T01:57:06;15.06;67.24
62464;SHT31;48512;48.552;9.380;2022-07-18T01:59:32;15.02;67.31
62464;SHT31;48512;48.552;9.380;2022-07-18T02:01:57;15.08;66.69
62464;SHT31;48512;48.552;9.380;2022-07-18T02:04:23;14.89;67.25
62464;SHT31;48512;48.552;9.380;2022-07-18T02:07:08;14.98;66.89
62464;SHT31;48512;48.552;9.380;2022-07-18T02:09:34;14.92;67.11
62464;SHT31;48512;48.552;9.380;2022-07-18T02:11:59;14.88;66.69
62464;SHT31;48512;48.552;9.380;2022-07-18T02:14:25;14.75;66.89
62464;SHT31;48512;48.552;9.380;2022-07-18T02:16:50;14.64;67.31
62464;SHT31;48512;48.552;9.380;2022-07-18T02:19:15;14.75;67.01
62464;SHT31;48512;48.552;9.380;2022-07-18T02:21:41;14.64;67.23
62464;SHT31;48512;48.552;9.380;2022-07-18T02:24:07;14.67;66.98
62464;SHT31;48512;48.552;9.380;2022-07-18T02:26:32;14.61;66.90
62464;SHT31;48512;48.552;9.380;2022-07-18T02:28:57;14.68;66.51
62464;SHT31;48512;48.552;9.380;2022-07-18T02:31:23;14.63;66.57
62464;SHT31;48512;48.552;9.380;2022-07-18T02:33:48;14.52;66.99
62464;SHT31;48512;48.552;9.380;2022-07-18T02:36:14;14.57;67.05
62464;SHT31;48512;48.552;9.380;2022-07-18T02:38:39;14.57;67.11
62464;SHT31;48512;48.552;9.380;2022-07-18T02:41:05;14.63;66.34
62464;SHT31;48512;48.552;9.380;2022-07-18T02:43:30;14.65;65.71
62464;SHT31;48512;48.552;9.380;2022-07-18T02:45:56;14.69;65.93
62464;SHT31;48512;48.552;9.380;2022-07-18T02:48:21;14.79;65.56
62464;SHT31;48512;48.552;9.380;2022-07-18T02:50:46;14.87;65.43
62464;SHT31;48512;48.552;9.380;2022-07-18T02:53:12;14.82;65.88
62464;SHT31;48512;48.552;9.380;2022-07-18T02:55:37;14.75;66.04
62464;SHT31;48512;48.552;9.380;2022-07-18T02:58:02;14.72;65.61
62464;SHT31;48512;48.552;9.380;2022-07-18T03:00:28;14.60;65.77
62464;SHT31;48512;48.552;9.380;2022-07-18T03:02:53;14.37;66.45
62464;SHT31;48512;48.552;9.380;2022-07-18T03:05:19;14.20;66.99
62464;SHT31;48512;48.552;9.380;2022-07-18T03:07:44;14.10;67.33
62464;SHT31;48512;48.552;9.380;2022-07-18T03:10:10;14.02;67.76
62464;SHT31;48512;48.552;9.380;2022-07-18T03:12:35;13.93;67.79
62464;SHT31;48512;48.552;9.380;2022-07-18T03:15:00;13.79;68.22
62464;SHT31;48512;48.552;9.380;2022-07-18T03:17:26;13.76;68.52
62464;SHT31;48512;48.552;9.380;2022-07-18T03:19:51;13.90;67.97
62464;SHT31;48512;48.552;9.380;2022-07-18T03:22:17;13.92;67.72
62464;SHT31;48512;48.552;9.380;2022-07-18T03:24:42;13.87;67.70
62464;SHT31;48512;48.552;9.380;2022-07-18T03:27:08;13.86;67.64
62464;SHT31;48512;48.552;9.380;2022-07-18T03:29:33;13.89;67.54
62464;SHT31;48512;48.552;9.380;2022-07-18T03:31:59;13.96;67.21
62464;SHT31;48512;48.552;9.380;2022-07-18T03:34:24;13.86;67.29
62464;SHT31;48512;48.552;9.380;2022-07-18T03:36:50;13.87;67.25
62464;SHT31;48512;48.552;9.380;2022-07-18T03:39:15;13.78;67.64
62464;SHT31;48512;48.552;9.380;2022-07-18T03:41:40;13.68;67.73
62464;SHT31;48512;48.552;9.380;2022-07-18T03:44:06;13.61;67.81
62464;SHT31;48512;48.552;9.380;2022-07-18T03:46:32;13.51;68.33
62464;SHT31;48512;48.552;9.380;2022-07-18T03:48:58;13.58;68.28
62464;SHT31;48512;48.552;9.380;2022-07-18T03:51:24;13.58;68.44
62464;SHT31;48512;48.552;9.380;2022-07-18T03:53:49;13.53;68.55
62464;SHT31;48512;48.552;9.380;2022-07-18T03:56:15;13.54;69.01
62464;SHT31;48512;48.552;9.380;2022-07-18T03:58:41;13.50;69.32
62464;SHT31;48512;48.552;9.380;2022-07-18T04:01:07;13.53;69.01
62464;SHT31;48512;48.552;9.380;2022-07-18T04:03:32;13.53;68.88
62464;SHT31;48512;48.552;9.380;2022-07-18T04:05:58;13.43;68.98
62464;SHT31;48512;48.552;9.380;2022-07-18T04:08:23;13.45;68.94
62464;SHT31;48512;48.552;9.380;2022-07-18T04:10:49;13.40;68.96
62464;SHT31;48512;48.552;9.380;2022-07-18T04:13:14;13.45;69.32
62464;SHT31;48512;48.552;9.380;2022-07-18T04:15:40;13.45;69.38
62464;SHT31;48512;48.552;9.380;2022-07-18T04:18:06;13.50;69.25
62464;SHT31;48512;48.552;9.380;2022-07-18T04:20:33;13.50;69.26
62464;SHT31;48512;48.552;9.380;2022-07-18T04:23:00;13.50;69.29
62464;SHT31;48512;48.552;9.380;2022-07-18T04:25:28;13.51;69.47
62464;SHT31;48512;48.552;9.380;2022-07-18T04:27:54;13.57;69.57
62464;SHT31;48512;48.552;9.380;2022-07-18T04:30:22;13.62;69.34
62464;SHT31;48512;48.552;9.380;2022-07-18T04:32:48;13.59;69.66
62464;SHT31;48512;48.552;9.380;2022-07-18T04:35:14;13.64;69.49
62464;SHT31;48512;48.552;9.380;2022-07-18T04:37:40;13.81;69.44
62464;SHT31;48512;48.552;9.380;2022-07-18T04:40:09;13.81;69.58
62464;SHT31;48512;48.552;9.380;2022-07-18T04:42:35;13.79;69.82
62464;SHT31;48512;48.552;9.380;2022-07-18T04:45:01;13.85;69.58
62464;SHT31;48512;48.552;9.380;2022-07-18T04:47:27;13.93;69.40
62464;SHT31;48512;48.552;9.380;2022-07-18T04:49:53;13.95;69.71
62464;SHT31;48512;48.552;9.380;2022-07-18T04:52:19;13.89;69.96
62464;SHT31;48512;48.552;9.380;2022-07-18T04:54:44;13.95;70.09
62464;SHT31;48512;48.552;9.380;2022-07-18T04:57:10;13.98;70.00
62464;SHT31;48512;48.552;9.380;2022-07-18T04:59:38;13.92;70.54
62464;SHT31;48512;48.552;9.380;2022-07-18T05:02:09;13.87;71.11
62464;SHT31;48512;48.552;9.380;2022-07-18T05:04:36;13.89;71.27
62464;SHT31;48512;48.552;9.380;2022-07-18T05:07:01;13.86;71.87
62464;SHT31;48512;48.552;9.380;2022-07-18T05:09:27;13.83;72.18
62464;SHT31;48512;48.552;9.380;2022-07-18T05:11:53;13.82;72.61
62464;SHT31;48512;48.552;9.380;2022-07-18T05:14:19;13.86;72.82
62464;SHT31;48512;48.552;9.380;2022-07-18T05:16:46;14.01;72.82
62464;SHT31;48512;48.552;9.380;2022-07-18T05:19:11;14.16;72.37
62464;SHT31;48512;48.552;9.380;2022-07-18T05:21:37;14.24;72.20
62464;SHT31;48512;48.552;9.380;2022-07-18T05:24:02;14.36;72.44
62464;SHT31;48512;48.552;9.380;2022-07-18T05:26:28;14.40;72.27
62464;SHT31;48512;48.552;9.380;2022-07-18T05:28:53;14.45;72.25
62464;SHT31;48512;48.552;9.380;2022-07-18T05:31:18;14.52;72.28
62464;SHT31;48512;48.552;9.380;2022-07-18T05:33:44;14.60;72.13
62464;SHT31;48512;48.552;9.380;2022-07-18T05:36:10;14.71;71.47
62464;SHT31;48512;48.552;9.380;2022-07-18T05:38:35;14.79;71.39
62464;SHT31;48512;48.552;9.380;2022-07-18T05:41:01;14.88;70.95
62464;SHT31;48512;48.552;9.380;2022-07-18T05:43:26;14.98;71.23
62464;SHT31;48512;48.552;9.380;2022-07-18T05:45:52;15.06;71.26
62464;SHT31;48512;48.552;9.380;2022-07-18T05:48:17;15.18;70.66
62464;SHT31;48512;48.552;9.380;2022-07-18T05:50:42;15.26;70.29
62464;SHT31;48512;48.552;9.380;2022-07-18T05:53:09;15.30;70.16
62464;SHT31;48512;48.552;9.380;2022-07-18T05:55:35;15.39;70.10
62464;SHT31;48512;48.552;9.380;2022-07-18T05:58:00;15.44;69.82
62464;SHT31;48512;48.552;9.380;2022-07-18T06:00:26;16.08;71.29
62464;SHT31;48512;48.552;9.380;2022-07-18T06:02:51;16.16;69.20
62464;SHT31;48512;48.552;9.380;2022-07-18T06:05:17;16.11;67.21
62464;SHT31;48512;48.552;9.380;2022-07-18T06:07:43;16.11;66.34
62464;SHT31;48512;48.552;9.380;2022-07-18T06:10:08;16.18;65.72
62464;SHT31;48512;48.552;9.380;2022-07-18T06:12:34;16.22;66.01
62464;SHT31;48512;48.552;9.380;2022-07-18T06:15:00;16.23;66.51
62464;SHT31;48512;48.552;9.380;2022-07-18T06:17:26;16.25;66.15
62464;SHT31;48512;48.552;9.380;2022-07-18T06:19:53;16.32;66.21
62464;SHT31;48512;48.552;9.380;2022-07-18T06:22:19;16.39;65.76
62464;SHT31;48512;48.552;9.380;2022-07-18T06:24:45;16.43;65.84
62464;SHT31;48512;48.552;9.380;2022-07-18T06:27:10;16.50;66.19
62464;SHT31;48512;48.552;9.380;2022-07-18T06:29:35;16.55;65.53
62464;SHT31;48512;48.552;9.380;2022-07-18T06:32:01;16.63;64.13
62464;SHT31;48512;48.552;9.380;2022-07-18T06:34:26;16.68;62.80
62464;SHT31;48512;48.552;9.380;2022-07-18T06:36:52;16.83;59.80
62464;SHT31;48512;48.552;9.380;2022-07-18T06:39:17;16.91;62.28
62464;SHT31;48512;48.552;9.380;2022-07-18T06:41:44;16.97;61.94
62464;SHT31;48512;48.552;9.380;2022-07-18T06:44:09;17.18;60.87
62464;SHT31;48512;48.552;9.380;2022-07-18T06:46:35;17.34;59.69
62464;SHT31;48512;48.552;9.380;2022-07-18T06:49:02;17.56;59.93
62464;SHT31;48512;48.552;9.380;2022-07-18T06:51:27;17.76;60.42
62464;SHT31;48512;48.552;9.380;2022-07-18T06:53:53;17.79;60.52
62464;SHT31;48512;48.552;9.380;2022-07-18T06:56:18;17.94;60.38
62464;SHT31;48512;48.552;9.380;2022-07-18T06:58:44;18.08;59.84
62464;SHT31;48512;48.552;9.380;2022-07-18T07:01:17;18.11;59.69
62464;SHT31;48512;48.552;9.380;2022-07-18T07:03:43;18.18;60.34
62464;SHT31;48512;48.552;9.380;2022-07-18T07:06:08;18.22;59.31
62464;SHT31;48512;48.552;9.380;2022-07-18T07:08:33;18.27;59.80
62464;SHT31;48512;48.552;9.380;2022-07-18T07:10:59;18.32;60.14
62464;SHT31;48512;48.552;9.380;2022-07-18T07:13:25;18.45;59.53
62464;SHT31;48512;48.552;9.380;2022-07-18T07:15:50;18.59;57.94
62464;SHT31;48512;48.552;9.380;2022-07-18T07:18:16;18.69;57.07
62464;SHT31;48512;48.552;9.380;2022-07-18T07:20:41;18.76;55.97
62464;SHT31;48512;48.552;9.380;2022-07-18T07:23:06;18.94;55.96
62464;SHT31;48512;48.552;9.380;2022-07-18T07:25:36;19.03;55.61
62464;SHT31;48512;48.552;9.380;2022-07-18T07:28:02;19.21;56.80
62464;SHT31;48512;48.552;9.380;2022-07-18T07:30:28;19.21;54.82
62464;SHT31;48512;48.552;9.380;2022-07-18T07:32:53;19.35;55.57
62464;SHT31;48512;48.552;9.380;2022-07-18T07:35:20;19.50;54.30
62464;SHT31;48512;48.552;9.380;2022-07-18T07:37:48;19.54;54.39
62464;SHT31;48512;48.552;9.380;2022-07-18T07:40:14;19.79;52.71
62464;SHT31;48512;48.552;9.380;2022-07-18T07:42:40;19.87;52.23
62464;SHT31;48512;48.552;9.380;2022-07-18T07:45:07;20.05;52.52
62464;SHT31;48512;48.552;9.380;2022-07-18T07:47:34;20.20;54.76
62464;SHT31;48512;48.552;9.380;2022-07-18T07:49:59;20.27;52.32
62464;SHT31;48512;48.552;9.380;2022-07-18T07:52:25;20.34;51.57
62464;SHT31;48512;48.552;9.380;2022-07-18T07:54:52;20.49;51.02
62464;SHT31;48512;48.552;9.380;2022-07-18T07:57:18;20.59;50.55
62464;SHT31;48512;48.552;9.380;2022-07-18T07:59:44;20.82;50.78
62464;SHT31;48512;48.552;9.380;2022-07-18T08:02:10;20.91;50.49
62464;SHT31;48512;48.552;9.380;2022-07-18T08:04:35;21.06;50.77
62464;SHT31;48512;48.552;9.380;2022-07-18T08:07:01;21.16;51.00
62464;SHT31;48512;48.552;9.380;2022-07-18T08:09:27;21.39;49.22
62464;SHT31;48512;48.552;9.380;2022-07-18T08:11:52;21.50;48.46
62464;SHT31;48512;48.552;9.380;2022-07-18T08:14:18;21.64;48.20
62464;SHT31;48512;48.552;9.380;2022-07-18T08:16:43;21.71;49.14
62464;SHT31;48512;48.552;9.380;2022-07-18T08:19:09;21.82;49.44
62464;SHT31;48512;48.552;9.380;2022-07-18T08:21:34;21.98;48.86
62464;SHT31;48512;48.552;9.380;2022-07-18T08:24:00;22.19;48.88
62464;SHT31;48512;48.552;9.380;2022-07-18T08:26:25;22.23;48.50
62464;SHT31;48512;48.552;9.380;2022-07-18T08:28:51;22.35;48.09
62464;SHT31;48512;48.552;9.380;2022-07-18T08:31:17;22.50;47.27
62464;SHT31;48512;48.552;9.380;2022-07-18T08:33:44;22.59;49.64
62464;SHT31;48512;48.552;9.380;2022-07-18T08:36:09;22.90;50.25
62464;SHT31;48512;48.552;9.380;2022-07-18T08:38:35;23.00;49.51
62464;SHT31;48512;48.552;9.380;2022-07-18T08:41:01;23.14;49.61
62464;SHT31;48512;48.552;9.380;2022-07-18T08:43:27;23.22;49.95
62464;SHT31;48512;48.552;9.380;2022-07-18T08:45:56;23.37;48.61
62464;SHT31;48512;48.552;9.380;2022-07-18T08:48:22;23.59;49.48
62464;SHT31;48512;48.552;9.380;2022-07-18T08:50:49;23.78;47.93
62464;SHT31;48512;48.552;9.380;2022-07-18T08:53:16;23.94;47.19
62464;SHT31;48512;48.552;9.380;2022-07-18T08:55:42;24.11;47.12
62464;SHT31;48512;48.552;9.380;2022-07-18T08:58:08;24.28;48.49
62464;SHT31;48512;48.552;9.380;2022-07-18T09:00:35;24.53;48.21
62464;SHT31;48512;48.552;9.380;2022-07-18T09:03:03;24.83;46.62
62464;SHT31;48512;48.552;9.380;2022-07-18T09:05:29;25.03;46.05
62464;SHT31;48512;48.552;9.380;2022-07-18T09:08:17;25.16;45.69
62464;SHT31;48512;48.552;9.380;2022-07-18T09:10:58;25.39;45.26
62464;SHT31;48512;48.552;9.380;2022-07-18T09:13:35;25.68;44.91
62464;SHT31;48512;48.552;9.380;2022-07-18T09:16:13;25.95;43.99
62464;SHT31;48512;48.552;9.380;2022-07-18T09:18:44;26.14;44.02
62464;SHT31;48512;48.552;9.380;2022-07-18T09:21:15;26.30;44.28
62464;SHT31;48512;48.552;9.380;2022-07-18T09:23:46;26.51;44.02
62464;SHT31;48512;48.552;9.380;2022-07-18T09:26:34;26.74;43.44
62464;SHT31;48512;48.552;9.380;2022-07-18T09:29:02;26.98;42.86
62464;SHT31;48512;48.552;9.380;2022-07-18T09:31:28;27.12;42.78
62464;SHT31;48512;48.552;9.380;2022-07-18T09:34:03;27.35;42.79
62464;SHT31;48512;48.552;9.380;2022-07-18T09:36:29;27.44;42.77
62464;SHT31;48512;48.552;9.380;2022-07-18T09:38:59;27.64;42.88
62464;SHT31;48512;48.552;9.380;2022-07-18T09:41:30;27.90;41.21
62464;SHT31;48512;48.552;9.380;2022-07-18T09:43:57;28.04;41.47
62464;SHT31;48512;48.552;9.380;2022-07-18T09:46:23;28.31;41.45
62464;SHT31;48512;48.552;9.380;2022-07-18T09:49:07;28.38;42.03
62464;SHT31;48512;48.552;9.380;2022-07-18T09:51:33;28.66;40.80
62464;SHT31;48512;48.552;9.380;2022-07-18T09:53:58;28.57;37.75
62464;SHT31;48512;48.552;9.380;2022-07-18T09:56:26;28.86;37.93
62464;SHT31;48512;48.552;9.380;2022-07-18T09:58:56;29.26;36.83
62464;SHT31;48512;48.552;9.380;2022-07-18T10:01:21;29.51;35.53
62464;SHT31;48512;48.552;9.380;2022-07-18T10:03:47;29.41;35.81
62464;SHT31;48512;48.552;9.380;2022-07-18T10:06:17;29.52;34.79
62464;SHT31;48512;48.552;9.380;2022-07-18T10:08:44;29.55;34.51
62464;SHT31;48512;48.552;9.380;2022-07-18T10:11:09;29.81;34.37
62464;SHT31;48512;48.552;9.380;2022-07-18T10:13:37;30.20;34.25
62464;SHT31;48512;48.552;9.380;2022-07-18T10:16:03;30.13;33.86
62464;SHT31;48512;48.552;9.380;2022-07-18T10:18:33;30.21;33.83
62464;SHT31;48512;48.552;9.380;2022-07-18T10:26:10;30.96;33.19
62464;SHT31;48512;48.552;9.380;2022-07-18T10:33:53;31.47;32.46
62464;SHT31;48512;48.552;9.380;2022-07-18T10:36:20;31.35;32.22
62464;SHT31;48512;48.552;9.380;2022-07-18T10:39:14;31.21;32.10
62464;SHT31;48512;48.552;9.380;2022-07-18T11:02:37;32.10;29.86
62464;SHT31;48512;48.552;9.380;2022-07-18T11:23:51;33.07;29.83
62464;SHT31;48512;48.552;9.380;2022-07-18T11:26:19;33.42;29.60
62464;SHT31;48512;48.552;9.380;2022-07-18T11:28:56;33.72;28.64
62464;SHT31;48512;48.552;9.380;2022-07-18T11:31:21;33.63;28.83
62464;SHT31;48512;48.552;9.380;2022-07-18T11:33:48;33.90;28.62
62464;SHT31;48512;48.552;9.380;2022-07-18T11:36:16;33.69;27.99
62464;SHT31;48512;48.552;9.380;2022-07-18T11:38:53;33.50;28.82
62464;SHT31;48512;48.552;9.380;2022-07-18T11:41:20;33.93;28.22
62464;SHT31;48512;48.552;9.380;2022-07-18T11:43:47;34.24;27.93
62464;SHT31;48512;48.552;9.380;2022-07-18T11:46:15;34.48;27.68
62464;SHT31;48512;48.552;9.380;2022-07-18T11:48:49;34.55;27.56
62464;SHT31;48512;48.552;9.380;2022-07-18T11:51:21;34.70;27.45
62464;SHT31;48512;48.552;9.380;2022-07-18T11:53:49;34.42;27.38
62464;SHT31;48512;48.552;9.380;2022-07-18T11:56:16;34.65;27.49
62464;SHT31;48512;48.552;9.380;2022-07-18T11:58:43;34.87;26.52
62464;SHT31;48512;48.552;9.380;2022-07-18T12:01:09;34.95;26.55
62464;SHT31;48512;48.552;9.380;2022-07-18T12:03:41;34.78;27.12
62464;SHT31;48512;48.552;9.380;2022-07-18T12:06:15;34.89;26.25
62464;SHT31;48512;48.552;9.380;2022-07-18T12:08:44;35.07;26.81
62464;SHT31;48512;48.552;9.380;2022-07-18T12:11:29;35.40;26.66
62464;SHT31;48512;48.552;9.380;2022-07-18T12:16:46;35.29;26.61
62464;SHT31;48512;48.552;9.380;2022-07-18T12:19:18;35.74;26.55
62464;SHT31;48512;48.552;9.380;2022-07-18T12:22:16;35.81;25.99
62464;SHT31;48512;48.552;9.380;2022-07-18T12:27:36;35.78;25.50
62464;SHT31;48512;48.552;9.380;2022-07-18T12:32:44;36.22;25.90
62464;SHT31;48512;48.552;9.380;2022-07-18T12:35:12;36.15;25.41
62464;SHT31;48512;48.552;9.380;2022-07-18T12:37:39;36.58;25.13
62464;SHT31;48512;48.552;9.380;2022-07-18T12:40:10;36.43;25.15
62464;SHT31;48512;48.552;9.380;2022-07-18T12:42:40;36.22;25.68
62464;SHT31;48512;48.552;9.380;2022-07-18T12:45:07;36.25;26.07
62464;SHT31;48512;48.552;9.380;2022-07-18T12:47:33;36.43;25.05
62464;SHT31;48512;48.552;9.380;2022-07-18T12:49:59;35.70;25.67
62464;SHT31;48512;48.552;9.380;2022-07-18T12:52:24;35.89;26.15
62464;SHT31;48512;48.552;9.380;2022-07-18T12:54:50;36.36;25.66
62464;SHT31;48512;48.552;9.380;2022-07-18T12:57:16;35.98;25.54
62464;SHT31;48512;48.552;9.380;2022-07-18T12:59:42;35.81;25.61
62464;SHT31;48512;48.552;9.380;2022-07-18T13:02:08;36.05;25.89
62464;SHT31;48512;48.552;9.380;2022-07-18T13:04:34;36.08;26.09
62464;SHT31;48512;48.552;9.380;2022-07-18T13:07:00;36.36;25.13
62464;SHT31;48512;48.552;9.380;2022-07-18T13:09:25;36.44;26.17
62464;SHT31;48512;48.552;9.380;2022-07-18T13:11:51;36.64;25.74
62464;SHT31;48512;48.552;9.380;2022-07-18T13:14:17;36.71;25.47
62464;SHT31;48512;48.552;9.380;2022-07-18T13:16:45;37.07;24.53
62464;SHT31;48512;48.552;9.380;2022-07-18T13:19:13;37.21;24.13
62464;SHT31;48512;48.552;9.380;2022-07-18T13:21:39;37.08;25.14
62464;SHT31;48512;48.552;9.380;2022-07-18T13:24:04;36.43;25.23
62464;SHT31;48512;48.552;9.380;2022-07-18T13:26:30;37.19;24.95
62464;SHT31;48512;48.552;9.380;2022-07-18T13:28:55;37.52;24.91
62464;SHT31;48512;48.552;9.380;2022-07-18T13:31:21;37.62;23.69
62464;SHT31;48512;48.552;9.380;2022-07-18T13:33:46;37.12;24.81
62464;SHT31;48512;48.552;9.380;2022-07-18T13:36:18;37.45;24.57
62464;SHT31;48512;48.552;9.380;2022-07-18T13:38:44;37.23;24.49
62464;SHT31;48512;48.552;9.380;2022-07-18T13:41:10;36.77;24.40
62464;SHT31;48512;48.552;9.380;2022-07-18T13:43:36;36.20;25.16
62464;SHT31;48512;48.552;9.380;2022-07-18T13:46:05;36.84;24.70
62464;SHT31;48512;48.552;9.380;2022-07-18T13:48:30;37.15;24.88
62464;SHT31;48512;48.552;9.380;2022-07-18T13:50:56;37.60;24.66
62464;SHT31;48512;48.552;9.380;2022-07-18T13:53:21;37.40;24.68
62464;SHT31;48512;48.552;9.380;2022-07-18T13:55:47;37.46;24.27
62464;SHT31;48512;48.552;9.380;2022-07-18T13:58:12;37.66;24.39
62464;SHT31;48512;48.552;9.380;2022-07-18T14:00:38;37.49;23.97
62464;SHT31;48512;48.552;9.380;2022-07-18T14:03:03;37.84;24.23
62464;SHT31;48512;48.552;9.380;2022-07-18T14:05:30;37.74;23.86
62464;SHT31;48512;48.552;9.380;2022-07-18T14:07:56;37.83;23.85
62464;SHT31;48512;48.552;9.380;2022-07-18T14:10:21;37.45;24.57
62464;SHT31;48512;48.552;9.380;2022-07-18T14:12:47;37.52;24.44
62464;SHT31;48512;48.552;9.380;2022-07-18T14:15:12;37.78;23.80
62464;SHT31;48512;48.552;9.380;2022-07-18T14:17:38;37.70;23.68
62464;SHT31;48512;48.552;9.380;2022-07-18T14:20:04;37.87;24.80
62464;SHT31;48512;48.552;9.380;2022-07-18T14:22:31;36.96;24.69
62464;SHT31;48512;48.552;9.380;2022-07-18T14:24:57;37.49;24.61
62464;SHT31;48512;48.552;9.380;2022-07-18T14:27:22;37.78;24.93
62464;SHT31;48512;48.552;9.380;2022-07-18T14:29:47;37.52;24.04
62464;SHT31;48512;48.552;9.380;2022-07-18T14:32:13;37.70;24.08
62464;SHT31;48512;48.552;9.380;2022-07-18T14:34:38;37.72;24.50
62464;SHT31;48512;48.552;9.380;2022-07-18T14:37:04;37.65;23.93
62464;SHT31;48512;48.552;9.380;2022-07-18T14:39:29;37.98;23.76
62464;SHT31;48512;48.552;9.380;2022-07-18T14:41:54;37.81;24.18
62464;SHT31;48512;48.552;9.380;2022-07-18T14:44:22;38.04;24.35
62464;SHT31;48512;48.552;9.380;2022-07-18T14:46:47;38.28;23.73
62464;SHT31;48512;48.552;9.380;2022-07-18T14:49:13;38.28;23.43
62464;SHT31;48512;48.552;9.380;2022-07-18T14:51:38;38.44;22.59
62464;SHT31;48512;48.552;9.380;2022-07-18T14:54:03;38.21;22.79
62464;SHT31;48512;48.552;9.380;2022-07-18T14:56:29;38.03;22.96
62464;SHT31;48512;48.552;9.380;2022-07-18T14:58:54;38.35;23.22
62464;SHT31;48512;48.552;9.380;2022-07-18T15:01:20;38.15;23.23
62464;SHT31;48512;48.552;9.380;2022-07-18T15:03:46;38.38;23.95
62464;SHT31;48512;48.552;9.380;2022-07-18T15:06:11;38.51;23.75
62464;SHT31;48512;48.552;9.380;2022-07-18T15:08:37;38.29;22.93
62464;SHT31;48512;48.552;9.380;2022-07-18T15:11:02;38.34;22.94
62464;SHT31;48512;48.552;9.380;2022-07-18T15:13:28;38.24;23.04
62464;SHT31;48512;48.552;9.380;2022-07-18T15:15:53;38.20;22.54
62464;SHT31;48512;48.552;9.380;2022-07-18T15:18:19;37.84;23.44
62464;SHT31;48512;48.552;9.380;2022-07-18T15:20:44;38.00;22.72
62464;SHT31;48512;48.552;9.380;2022-07-18T15:23:10;38.34;23.04
62464;SHT31;48512;48.552;9.380;2022-07-18T15:25:35;38.52;22.66
62464;SHT31;48512;48.552;9.380;2022-07-18T15:28:01;38.48;23.43
62464;SHT31;48512;48.552;9.380;2022-07-18T15:30:26;38.48;22.80
62464;SHT31;48512;48.552;9.380;2022-07-18T15:32:52;38.89;22.82
62464;SHT31;48512;48.552;9.380;2022-07-18T15:35:17;38.79;22.54
62464;SHT31;48512;48.552;9.380;2022-07-18T15:37:43;39.09;22.59
62464;SHT31;48512;48.552;9.380;2022-07-18T15:40:08;38.11;22.70
62464;SHT31;48512;48.552;9.380;2022-07-18T15:42:34;38.25;22.49
62464;SHT31;48512;48.552;9.380;2022-07-18T15:44:59;38.47;22.31
62464;SHT31;48512;48.552;9.380;2022-07-18T15:47:25;38.45;22.50
62464;SHT31;48512;48.552;9.380;2022-07-18T15:49:50;38.47;22.41
62464;SHT31;48512;48.552;9.380;2022-07-18T15:52:15;38.58;22.22
62464;SHT31;48512;48.552;9.380;2022-07-18T15:54:41;38.62;22.27
62464;SHT31;48512;48.552;9.380;2022-07-18T15:57:06;38.25;22.33
62464;SHT31;48512;48.552;9.380;2022-07-18T15:59:32;37.86;23.10
62464;SHT31;48512;48.552;9.380;2022-07-18T16:01:57;37.35;22.54
62464;SHT31;48512;48.552;9.380;2022-07-18T16:04:23;37.76;22.81
62464;SHT31;48512;48.552;9.380;2022-07-18T16:06:49;38.11;23.17
62464;SHT31;48512;48.552;9.380;2022-07-18T16:09:14;38.14;22.72
62464;SHT31;48512;48.552;9.380;2022-07-18T16:11:40;37.94;23.46
62464;SHT31;48512;48.552;9.380;2022-07-18T16:14:10;38.34;21.50
62464;SHT31;48512;48.552;9.380;2022-07-18T16:16:39;37.78;22.42
62464;SHT31;48512;48.552;9.380;2022-07-18T16:19:05;38.05;22.53
62464;SHT31;48512;48.552;9.380;2022-07-18T16:21:31;37.46;22.73
62464;SHT31;48512;48.552;9.380;2022-07-18T16:23:56;37.78;23.40
62464;SHT31;48512;48.552;9.380;2022-07-18T16:26:22;37.94;22.43